Wetterstation Vordersexau
Wetterdaten: Woche 02.04.12 - 08.04.12 (KW14)
Datum Zeit Temp. A. Feuchte A. Luftdruck Regen Wind Richtung Taupunkt Windchill Windben
02.04.2012 00:00 2,6 C 65 % 1011,6 hPa 0,0 l/m 0,0 km/h NO -3,3 C 2,6 C 0,0 km/h
02.04.2012 01:00 2,9 C 63 % 1011,6 hPa 0,0 l/m 0,0 km/h NO -3,4 C 2,9 C 0,0 km/h
02.04.2012 02:00 0,8 C 68 % 1011,6 hPa 0,0 l/m 0,0 km/h O -4,4 C 0,8 C 0,0 km/h
02.04.2012 03:00 0,3 C 70 % 1011,3 hPa 0,0 l/m 0,0 km/h O-SO -4,5 C 0,3 C 0,0 km/h
02.04.2012 04:00 -0,6 C 73 % 1010,7 hPa 0,0 l/m 0,0 km/h O-NO -4,8 C -0,6 C 0,0 km/h
02.04.2012 05:00 -1,2 C 74 % 1010,4 hPa 0,0 l/m 0,0 km/h O-SO -5,2 C -1,2 C 0,0 km/h
02.04.2012 06:00 -1,1 C 76 % 1010,5 hPa 0,0 l/m 0,0 km/h O-SO -4,8 C -1,1 C 0,0 km/h
02.04.2012 07:00 -1,1 C 76 % 1010,1 hPa 0,0 l/m 0,0 km/h NO -4,8 C -1,1 C 0,0 km/h
02.04.2012 08:00 1,4 C 73 % 1010,4 hPa 0,0 l/m 0,0 km/h S-SO -2,9 C 1,4 C 0,0 km/h
02.04.2012 09:00 11,6 C 48 % 1009,8 hPa 0,0 l/m 0,0 km/h W-NW 1,0 C 11,6 C 0,0 km/h
02.04.2012 10:00 13,5 C 39 % 1009,6 hPa 0,0 l/m 0,0 km/h N -0,2 C 13,5 C 0,0 km/h
02.04.2012 11:00 16,4 C 34 % 1009,0 hPa 0,0 l/m 8,4 km/h NW 0,5 C 15,4 C 4,7 km/h
02.04.2012 12:00 17,3 C 33 % 1008,4 hPa 0,0 l/m 0,0 km/h N-NO 0,9 C 17,3 C 0,0 km/h
02.04.2012 13:00 18,1 C 29 % 1007,3 hPa 0,0 l/m 14,9 km/h N-NO -0,2 C 15,0 C 8,3 km/h
02.04.2012 14:00 19,0 C 32 % 1006,5 hPa 0,0 l/m 0,0 km/h W 1,9 C 19,0 C 0,0 km/h
02.04.2012 15:00 21,9 C 28 % 1005,5 hPa 0,0 l/m 3,2 km/h N-NW 2,6 C 21,9 C 1,8 km/h
02.04.2012 16:00 25,4 C 23 % 1004,6 hPa 0,0 l/m 0,0 km/h NW 2,8 C 25,4 C 0,0 km/h
02.04.2012 17:00 26,3 C 21 % 1003,7 hPa 0,0 l/m 0,0 km/h SW 2,2 C 26,3 C 0,0 km/h
02.04.2012 18:00 23,8 C 23 % 1003,2 hPa 0,0 l/m 0,0 km/h W-NW 1,4 C 23,8 C 0,0 km/h
02.04.2012 19:00 19,1 C 30 % 1003,1 hPa 0,0 l/m 0,0 km/h S-SO 1,1 C 19,1 C 0,0 km/h
02.04.2012 20:00 10,1 C 48 % 1002,8 hPa 0,0 l/m 0,0 km/h SO -0,4 C 10,1 C 0,0 km/h
02.04.2012 21:00 8,1 C 54 % 1003,0 hPa 0,0 l/m 0,0 km/h O-NO -0,6 C 8,1 C 0,0 km/h
02.04.2012 22:00 6,6 C 62 % 1003,2 hPa 0,0 l/m 0,0 km/h O-SO -0,1 C 6,6 C 0,0 km/h
02.04.2012 23:00 5,2 C 68 % 1003,5 hPa 0,0 l/m 0,0 km/h O-SO -0,2 C 5,2 C 0,0 km/h
03.04.2012 00:00 3,9 C 72 % 1003,8 hPa 0,0 l/m 0,0 km/h O-NO -0,7 C 3,9 C 0,0 km/h
03.04.2012 01:00 3,6 C 75 % 1003,3 hPa 0,0 l/m 0,0 km/h O-NO -0,4 C 3,6 C 0,0 km/h
03.04.2012 02:00 3,4 C 77 % 1003,4 hPa 0,0 l/m 0,0 km/h NO -0,2 C 3,4 C 0,0 km/h
03.04.2012 03:00 3,3 C 78 % 1003,4 hPa 0,0 l/m 0,0 km/h SO -0,2 C 3,3 C 0,0 km/h
03.04.2012 04:00 5,1 C 77 % 1002,8 hPa 0,0 l/m 1,3 km/h O-SO 1,4 C 5,1 C 0,7 km/h
03.04.2012 05:00 3,6 C 78 % 1002,5 hPa 0,0 l/m 0,0 km/h O 0,1 C 3,6 C 0,0 km/h
03.04.2012 06:00 2,8 C 81 % 1002,6 hPa 0,0 l/m 0,0 km/h O -0,1 C 2,8 C 0,0 km/h
03.04.2012 07:00 3,3 C 82 % 1002,6 hPa 0,0 l/m 0,0 km/h O-SO 0,5 C 3,3 C 0,0 km/h
03.04.2012 08:00 5,8 C 81 % 1003,0 hPa 0,0 l/m 0,0 km/h W 2,8 C 5,8 C 0,0 km/h
03.04.2012 09:00 15,8 C 61 % 1002,7 hPa 0,0 l/m 3,2 km/h W-SW 8,3 C 15,8 C 1,8 km/h
03.04.2012 10:00 15,8 C 57 % 1003,0 hPa 0,0 l/m 35,0 km/h S-SW 7,3 C 8,1 C 19,4 km/h
03.04.2012 11:00 15,9 C 57 % 1003,2 hPa 0,0 l/m 25,3 km/h W 7,4 C 9,8 C 14,0 km/h
03.04.2012 12:00 18,9 C 49 % 1002,7 hPa 0,0 l/m 26,6 km/h SW 7,9 C 13,6 C 14,8 km/h
03.04.2012 13:00 18,4 C 50 % 1002,4 hPa 0,0 l/m 36,3 km/h SW 7,8 C 11,7 C 20,2 km/h
03.04.2012 14:00 21,1 C 44 % 1001,4 hPa 0,0 l/m 23,3 km/h W-SW 8,4 C 17,1 C 13,0 km/h
03.04.2012 15:00 22,6 C 40 % 1000,6 hPa 0,0 l/m 18,8 km/h S-SW 8,3 C 19,7 C 10,4 km/h
03.04.2012 16:00 19,6 C 44 % 1000,0 hPa 0,0 l/m 24,0 km/h N 7,0 C 15,0 C 13,3 km/h
03.04.2012 17:00 18,1 C 51 % 1000,9 hPa 0,0 l/m 0,0 km/h SO 7,8 C 18,1 C 0,0 km/h
03.04.2012 18:00 17,9 C 49 % 999,9 hPa 0,0 l/m 10,4 km/h W-NW 7,0 C 16,2 C 5,8 km/h
03.04.2012 19:00 12,9 C 72 % 1001,5 hPa 0,0 l/m 21,4 km/h NO 8,0 C 6,6 C 11,9 km/h
03.04.2012 20:00 10,5 C 82 % 1001,0 hPa 1,4 l/m 0,0 km/h S-SW 7,6 C 10,5 C 0,0 km/h
03.04.2012 21:00 10,4 C 84 % 1002,6 hPa 0,0 l/m 13,0 km/h S-SO 7,8 C 6,5 C 7,2 km/h
03.04.2012 22:00 11,4 C 82 % 1002,3 hPa 0,4 l/m 12,3 km/h W 8,4 C 8,0 C 6,8 km/h
03.04.2012 23:00 11,3 C 82 % 1003,0 hPa 0,0 l/m 24,0 km/h S 8,3 C 3,8 C 13,3 km/h
04.04.2012 00:00 10,3 C 84 % 1003,2 hPa 0,4 l/m 17,5 km/h S 7,7 C 4,5 C 9,7 km/h
04.04.2012 01:00 10,1 C 85 % 1003,8 hPa 0,4 l/m 21,4 km/h S-SW 7,7 C 3,0 C 11,9 km/h
04.04.2012 02:00 10,1 C 84 % 1003,4 hPa 0,0 l/m 13,6 km/h SW 7,5 C 5,9 C 7,6 km/h
04.04.2012 03:00 10,1 C 83 % 1003,7 hPa 0,0 l/m 6,5 km/h S 7,3 C 10,1 C 3,6 km/h
04.04.2012 04:00 10,1 C 83 % 1003,9 hPa 0,0 l/m 9,1 km/h S-SW 7,3 C 8,2 C 5,0 km/h
04.04.2012 05:00 10,3 C 82 % 1003,7 hPa 0,0 l/m 5,2 km/h NO 7,4 C 10,3 C 2,9 km/h
04.04.2012 06:00 9,3 C 84 % 1003,7 hPa 0,0 l/m 0,0 km/h NO 6,7 C 9,3 C 0,0 km/h
04.04.2012 07:00 8,9 C 84 % 1003,8 hPa 0,4 l/m 0,0 km/h O 6,3 C 8,9 C 0,0 km/h
04.04.2012 08:00 9,3 C 84 % 1004,6 hPa 0,0 l/m 0,0 km/h O-NO 6,7 C 9,3 C 0,0 km/h
04.04.2012 09:00 10,4 C 84 % 1005,1 hPa 0,0 l/m 0,0 km/h O-NO 7,8 C 10,4 C 0,0 km/h
04.04.2012 10:00 11,5 C 84 % 1006,0 hPa 0,4 l/m 0,0 km/h SW 8,9 C 11,5 C 0,0 km/h
04.04.2012 11:00 10,9 C 84 % 1006,4 hPa 0,4 l/m 24,6 km/h SW 8,3 C 3,2 C 13,7 km/h
04.04.2012 12:00 10,9 C 84 % 1006,9 hPa 0,0 l/m 20,7 km/h S-SW 8,3 C 4,2 C 11,5 km/h
04.04.2012 13:00 11,2 C 84 % 1007,2 hPa 0,0 l/m 7,8 km/h W-SW 8,6 C 10,2 C 4,3 km/h
04.04.2012 14:00 12,3 C 80 % 1007,0 hPa 0,4 l/m 5,2 km/h W 8,9 C 12,3 C 2,9 km/h
04.04.2012 15:00 12,6 C 77 % 1007,1 hPa 0,0 l/m 0,0 km/h NW 8,7 C 12,6 C 0,0 km/h
04.04.2012 16:00 18,9 C 62 % 1006,9 hPa 0,4 l/m 0,0 km/h N-NW 11,5 C 18,9 C 0,0 km/h
04.04.2012 17:00 16,6 C 66 % 1006,6 hPa 0,0 l/m 0,0 km/h O-NO 10,2 C 16,6 C 0,0 km/h
04.04.2012 18:00 13,6 C 70 % 1006,2 hPa 0,0 l/m 0,0 km/h O-NO 8,2 C 13,6 C 0,0 km/h
04.04.2012 19:00 14,5 C 68 % 1006,5 hPa 0,0 l/m 0,0 km/h NO 8,7 C 14,5 C 0,0 km/h
04.04.2012 20:00 9,8 C 79 % 1007,0 hPa 0,0 l/m 0,0 km/h O-SO 6,3 C 9,8 C 0,0 km/h
04.04.2012 21:00 7,9 C 83 % 1007,5 hPa 0,0 l/m 0,0 km/h SO 5,2 C 7,9 C 0,0 km/h
04.04.2012 22:00 7,8 C 84 % 1007,6 hPa 0,0 l/m 0,6 km/h NO 5,3 C 7,8 C 0,4 km/h
04.04.2012 23:00 7,1 C 85 % 1007,9 hPa 0,0 l/m 0,0 km/h NO 4,8 C 7,1 C 0,0 km/h
05.04.2012 00:00 6,7 C 84 % 1007,7 hPa 0,0 l/m 0,0 km/h NO 4,2 C 6,7 C 0,0 km/h
05.04.2012 01:00 7,5 C 83 % 1007,5 hPa 0,0 l/m 0,0 km/h N-NO 4,8 C 7,5 C 0,0 km/h
05.04.2012 02:00 7,4 C 82 % 1007,5 hPa 0,0 l/m 0,0 km/h N 4,5 C 7,4 C 0,0 km/h
05.04.2012 03:00 7,5 C 82 % 1007,6 hPa 0,0 l/m 0,0 km/h W-SW 4,6 C 7,5 C 0,0 km/h
05.04.2012 04:00 7,5 C 82 % 1007,4 hPa 0,0 l/m 0,0 km/h W 4,6 C 7,5 C 0,0 km/h
05.04.2012 05:00 7,4 C 82 % 1007,5 hPa 0,0 l/m 0,0 km/h W 4,5 C 7,4 C 0,0 km/h
05.04.2012 06:00 7,4 C 82 % 1007,8 hPa 0,4 l/m 0,0 km/h W 4,5 C 7,4 C 0,0 km/h
05.04.2012 07:00 7,5 C 81 % 1008,1 hPa 0,4 l/m 0,0 km/h W 4,5 C 7,5 C 0,0 km/h
05.04.2012 08:00 7,8 C 80 % 1008,8 hPa 0,4 l/m 0,0 km/h W 4,6 C 7,8 C 0,0 km/h
05.04.2012 09:00 8,3 C 78 % 1008,9 hPa 0,4 l/m 0,0 km/h W-NW 4,7 C 8,3 C 0,0 km/h
05.04.2012 10:00 8,6 C 80 % 1009,4 hPa 1,1 l/m 0,0 km/h W 5,3 C 8,6 C 0,0 km/h
05.04.2012 11:00 9,3 C 82 % 1009,7 hPa 0,4 l/m 0,0 km/h W 6,4 C 9,3 C 0,0 km/h
05.04.2012 12:00 10,3 C 84 % 1009,6 hPa 0,4 l/m 0,0 km/h N-NO 7,7 C 10,3 C 0,0 km/h
05.04.2012 13:00 10,6 C 85 % 1009,4 hPa 0,0 l/m 0,0 km/h N-NW 8,2 C 10,6 C 0,0 km/h
05.04.2012 14:00 10,8 C 85 % 1009,3 hPa 0,7 l/m 0,0 km/h N 8,4 C 10,8 C 0,0 km/h
05.04.2012 15:00 11,1 C 85 % 1009,1 hPa 0,7 l/m 3,2 km/h NW 8,7 C 11,1 C 1,8 km/h
05.04.2012 16:00 10,8 C 85 % 1008,9 hPa 1,1 l/m 2,6 km/h N 8,4 C 10,8 C 1,4 km/h
05.04.2012 17:00 10,4 C 85 % 1009,1 hPa 1,4 l/m 0,0 km/h N-NO 8,0 C 10,4 C 0,0 km/h
05.04.2012 18:00 9,9 C 85 % 1009,3 hPa 1,1 l/m 2,6 km/h NO 7,5 C 9,9 C 1,4 km/h
05.04.2012 19:00 9,1 C 85 % 1009,6 hPa 0,4 l/m 0,0 km/h NO 6,7 C 9,1 C 0,0 km/h
05.04.2012 20:00 8,2 C 85 % 1009,9 hPa 0,7 l/m 0,0 km/h O-NO 5,8 C 8,2 C 0,0 km/h
05.04.2012 21:00 8,1 C 85 % 1010,5 hPa 0,0 l/m 0,0 km/h SO 5,7 C 8,1 C 0,0 km/h
05.04.2012 22:00 7,9 C 85 % 1010,6 hPa 0,0 l/m 0,0 km/h SO 5,5 C 7,9 C 0,0 km/h
05.04.2012 23:00 7,7 C 85 % 1010,2 hPa 0,0 l/m 0,0 km/h SO 5,3 C 7,7 C 0,0 km/h
06.04.2012 00:00 7,5 C 84 % 1010,2 hPa 0,0 l/m 0,0 km/h SO 5,0 C 7,5 C 0,0 km/h
06.04.2012 01:00 7,0 C 84 % 1009,9 hPa 0,0 l/m 0,0 km/h SO 4,5 C 7,0 C 0,0 km/h
06.04.2012 02:00 5,9 C 84 % 1009,4 hPa 0,0 l/m 0,0 km/h SO 3,4 C 5,9 C 0,0 km/h
06.04.2012 03:00 6,1 C 83 % 1009,6 hPa 0,0 l/m 0,0 km/h SO 3,4 C 6,1 C 0,0 km/h
06.04.2012 04:00 6,6 C 82 % 1009,2 hPa 0,0 l/m 0,0 km/h W-NW 3,8 C 6,6 C 0,0 km/h
06.04.2012 05:00 6,7 C 80 % 1009,0 hPa 0,0 l/m 0,0 km/h W 3,5 C 6,7 C 0,0 km/h
06.04.2012 06:00 6,3 C 79 % 1009,1 hPa 0,0 l/m 0,0 km/h W-NW 2,9 C 6,3 C 0,0 km/h
06.04.2012 07:00 5,9 C 79 % 1009,4 hPa 0,4 l/m 0,0 km/h W 2,5 C 5,9 C 0,0 km/h
06.04.2012 08:00 6,1 C 79 % 1009,6 hPa 0,0 l/m 0,0 km/h NW 2,7 C 6,1 C 0,0 km/h
06.04.2012 09:00 6,8 C 82 % 1009,5 hPa 0,0 l/m 3,2 km/h W 3,9 C 6,8 C 1,8 km/h
06.04.2012 10:00 7,8 C 85 % 1009,7 hPa 0,0 l/m 0,0 km/h W 5,4 C 7,8 C 0,0 km/h
06.04.2012 11:00 9,0 C 85 % 1009,5 hPa 0,0 l/m 0,0 km/h S 6,6 C 9,0 C 0,0 km/h
06.04.2012 12:00 11,1 C 83 % 1009,2 hPa 0,0 l/m 0,0 km/h SW 8,3 C 11,1 C 0,0 km/h
06.04.2012 13:00 12,2 C 78 % 1008,7 hPa 0,0 l/m 13,6 km/h N 8,5 C 8,4 C 7,6 km/h
06.04.2012 14:00 12,9 C 74 % 1008,2 hPa 0,0 l/m 0,0 km/h O 8,4 C 12,9 C 0,0 km/h
06.04.2012 15:00 11,9 C 77 % 1007,9 hPa 0,0 l/m 0,0 km/h SO 8,0 C 11,9 C 0,0 km/h
06.04.2012 16:00 13,8 C 71 % 1007,1 hPa 0,0 l/m 0,0 km/h W-SW 8,6 C 13,8 C 0,0 km/h
06.04.2012 17:00 14,6 C 68 % 1006,5 hPa 0,0 l/m 2,6 km/h S-SW 8,8 C 14,6 C 1,4 km/h
06.04.2012 18:00 18,1 C 58 % 1006,1 hPa 0,0 l/m 1,9 km/h SO 9,7 C 18,1 C 1,1 km/h
06.04.2012 19:00 14,6 C 63 % 1005,8 hPa 0,0 l/m 0,0 km/h SO 7,6 C 14,6 C 0,0 km/h
06.04.2012 20:00 7,9 C 79 % 1006,1 hPa 0,0 l/m 0,0 km/h O-NO 4,5 C 7,9 C 0,0 km/h
06.04.2012 21:00 6,6 C 84 % 1006,5 hPa 0,0 l/m 0,0 km/h O 4,1 C 6,6 C 0,0 km/h
06.04.2012 22:00 5,9 C 85 % 1006,1 hPa 0,0 l/m 0,0 km/h NO 3,6 C 5,9 C 0,0 km/h
06.04.2012 23:00 5,0 C 85 % 1005,8 hPa 0,0 l/m 0,0 km/h O-NO 2,7 C 5,0 C 0,0 km/h
07.04.2012 00:00 4,6 C 85 % 1005,8 hPa 0,0 l/m 0,0 km/h NO 2,3 C 4,6 C 0,0 km/h
07.04.2012 01:00 5,2 C 84 % 1005,3 hPa 0,0 l/m 0,0 km/h SO 2,7 C 5,2 C 0,0 km/h
07.04.2012 02:00 4,6 C 84 % 1004,4 hPa 0,0 l/m 0,0 km/h O-SO 2,1 C 4,6 C 0,0 km/h
07.04.2012 03:00 5,1 C 83 % 1004,2 hPa 0,0 l/m 0,0 km/h O-SO 2,5 C 5,1 C 0,0 km/h
07.04.2012 04:00 5,4 C 81 % 1003,9 hPa 0,0 l/m 0,0 km/h O-NO 2,4 C 5,4 C 0,0 km/h
07.04.2012 05:00 5,6 C 80 % 1003,4 hPa 0,0 l/m 0,0 km/h O-NO 2,4 C 5,6 C 0,0 km/h
07.04.2012 06:00 5,5 C 80 % 1003,4 hPa 0,0 l/m 0,0 km/h O-NO 2,3 C 5,5 C 0,0 km/h
07.04.2012 07:00 5,2 C 80 % 1003,9 hPa 0,0 l/m 0,0 km/h N-NO 2,0 C 5,2 C 0,0 km/h
07.04.2012 08:00 6,5 C 78 % 1004,2 hPa 0,0 l/m 0,0 km/h N-NO 2,9 C 6,5 C 0,0 km/h
07.04.2012 09:00 8,4 C 85 % 1004,6 hPa 0,0 l/m 0,0 km/h N-NW 6,0 C 8,4 C 0,0 km/h
07.04.2012 10:00 8,7 C 78 % 1005,0 hPa 0,0 l/m 1,9 km/h NW 5,1 C 8,7 C 1,1 km/h
07.04.2012 11:00 11,2 C 67 % 1005,2 hPa 0,0 l/m 0,0 km/h N 5,3 C 11,2 C 0,0 km/h
07.04.2012 12:00 10,9 C 65 % 1005,2 hPa 0,0 l/m 0,0 km/h S 4,6 C 10,9 C 0,0 km/h
07.04.2012 13:00 12,9 C 57 % 1004,7 hPa 0,0 l/m 0,0 km/h N-NO 4,6 C 12,9 C 0,0 km/h
07.04.2012 14:00 12,8 C 54 % 1004,5 hPa 0,0 l/m 2,6 km/h N 3,7 C 12,8 C 1,4 km/h
07.04.2012 15:00 14,8 C 47 % 1004,1 hPa 0,0 l/m 0,0 km/h W 3,6 C 14,8 C 0,0 km/h
07.04.2012 16:00 12,7 C 54 % 1003,9 hPa 0,0 l/m 0,0 km/h N-NO 3,6 C 12,7 C 0,0 km/h
07.04.2012 17:00 11,8 C 55 % 1003,8 hPa 0,0 l/m 4,5 km/h N-NO 3,1 C 11,8 C 2,5 km/h
07.04.2012 18:00 9,9 C 61 % 1004,1 hPa 0,0 l/m 3,2 km/h NO 2,7 C 9,9 C 1,8 km/h
07.04.2012 19:00 9,6 C 63 % 1004,3 hPa 0,0 l/m 0,0 km/h O-NO 2,9 C 9,6 C 0,0 km/h
07.04.2012 20:00 7,2 C 70 % 1004,7 hPa 0,0 l/m 0,0 km/h O-NO 2,1 C 7,2 C 0,0 km/h
07.04.2012 21:00 6,8 C 75 % 1005,2 hPa 0,0 l/m 0,0 km/h O-NO 2,7 C 6,8 C 0,0 km/h
07.04.2012 22:00 6,4 C 78 % 1005,4 hPa 0,0 l/m 0,0 km/h N-NW 2,8 C 6,4 C 0,0 km/h
07.04.2012 23:00 6,9 C 75 % 1005,8 hPa 0,0 l/m 0,0 km/h N-NO 2,8 C 6,9 C 0,0 km/h
08.04.2012 00:00 6,2 C 74 % 1006,3 hPa 0,0 l/m 13,6 km/h N-NO 1,9 C 1,2 C 7,6 km/h
08.04.2012 01:00 5,6 C 70 % 1006,8 hPa 0,0 l/m 0,0 km/h N-NO 0,6 C 5,6 C 0,0 km/h
08.04.2012 02:00 5,1 C 70 % 1007,0 hPa 0,0 l/m 0,0 km/h N-NO 0,1 C 5,1 C 0,0 km/h
08.04.2012 03:00 4,8 C 69 % 1007,4 hPa 0,0 l/m 0,0 km/h N-NO -0,4 C 4,8 C 0,0 km/h
08.04.2012 04:00 3,9 C 72 % 1007,6 hPa 0,0 l/m 0,0 km/h N-NO -0,7 C 3,9 C 0,0 km/h
08.04.2012 05:00 3,3 C 75 % 1007,7 hPa 0,0 l/m 0,0 km/h N-NO -0,7 C 3,3 C 0,0 km/h
08.04.2012 06:00 3,1 C 76 % 1008,3 hPa 0,0 l/m 0,0 km/h N-NO -0,7 C 3,1 C 0,0 km/h
08.04.2012 07:00 3,3 C 73 % 1009,4 hPa 0,0 l/m 0,0 km/h N-NW -1,1 C 3,3 C 0,0 km/h
08.04.2012 08:00 4,2 C 70 % 1010,4 hPa 0,0 l/m 0,0 km/h N-NO -0,8 C 4,2 C 0,0 km/h
08.04.2012 09:00 5,4 C 67 % 1011,1 hPa 0,0 l/m 0,0 km/h O-SO -0,2 C 5,4 C 0,0 km/h
08.04.2012 10:00 6,2 C 63 % 1012,0 hPa 0,0 l/m 0,0 km/h NW -0,3 C 6,2 C 0,0 km/h
08.04.2012 11:00 9,4 C 52 % 1012,6 hPa 0,0 l/m 1,9 km/h N 0,1 C 9,4 C 1,1 km/h
08.04.2012 12:00 9,1 C 42 % 1012,8 hPa 0,0 l/m 5,8 km/h N-NO -3,1 C 9,1 C 3,2 km/h
08.04.2012 13:00 10,1 C 38 % 1013,3 hPa 0,0 l/m 0,0 km/h N-NO -3,6 C 10,1 C 0,0 km/h
08.04.2012 14:00 9,8 C 35 % 1013,2 hPa 0,0 l/m 1,9 km/h N -4,9 C 9,8 C 1,1 km/h
08.04.2012 15:00 11,1 C 39 % 1013,2 hPa 0,0 l/m 3,9 km/h N-NW -2,3 C 11,1 C 2,2 km/h
08.04.2012 16:00 8,9 C 40 % 1013,2 hPa 0,0 l/m 0,0 km/h W-NW -3,9 C 8,9 C 0,0 km/h
08.04.2012 17:00 14,0 C 35 % 1013,2 hPa 0,0 l/m 5,8 km/h W -1,2 C 14,0 C 3,2 km/h
08.04.2012 18:00 7,9 C 42 % 1013,5 hPa 0,0 l/m 2,6 km/h S -4,2 C 7,9 C 1,4 km/h
08.04.2012 19:00 6,4 C 50 % 1013,4 hPa 0,0 l/m 0,0 km/h S-SO -3,2 C 6,4 C 0,0 km/h
08.04.2012 20:00 4,6 C 60 % 1013,7 hPa 0,0 l/m 0,0 km/h O-NO -2,5 C 4,6 C 0,0 km/h
08.04.2012 21:00 3,3 C 64 % 1014,1 hPa 0,0 l/m 0,0 km/h NO -2,8 C 3,3 C 0,0 km/h
08.04.2012 22:00 1,6 C 67 % 1013,9 hPa 0,0 l/m 0,0 km/h O-SO -3,9 C 1,6 C 0,0 km/h
08.04.2012 23:00 0,5 C 72 % 1013,8 hPa 0,0 l/m 0,0 km/h SO -3,9 C 0,5 C 0,0 km/h
Min-Datum _ 02.04.12 02.04.12 03.04.12 - 02.04.12 - 02.04.12 02.04.12 02.04.12
_ Min-Zeit 05:30 17:30 18:30 - 00:30 - 05:30 05:30 00:30
Minimum _ -1,2 C 21 % 999,9 hPa - 0,0 km/h - -5,2 C -1,2 C 0,0 km/h
Max-Datum _ 02.04.12 04.04.12 08.04.12 03.04.12 03.04.12 - 04.04.12 02.04.12 03.04.12
_ Max-Zeit 17:30 01:30 21:30 20:30 13:30 - 16:30 17:30 13:30
Maximum _ 26,3 C 85 % 1014,1 hPa 1,4 l/m 36,3 km/h
SW
- 11,5 C 26,3 C 20,2 km/h
SW
Durchschnitt _ 9,3 C 70 % 1006,9 hPa #13,9 l/m 3,0 km/h N-NO 3,5 C 8,6 C 1,7 km/h
www.sexauwetter.de